sensor_id;sensor_type;location;lat;lon;timestamp;temperature;humidity
72602;DHT22;60644;55.858;37.390;2022-07-29T00:00:09;0.00;0.00
72602;DHT22;60644;55.858;37.390;2022-07-29T00:02:36;0.00;0.00
72602;DHT22;60644;55.858;37.390;2022-07-29T00:05:02;0.00;0.00
72602;DHT22;60644;55.858;37.390;2022-07-29T00:07:29;0.00;0.00
72602;DHT22;60644;55.858;37.390;2022-07-29T00:09:55;0.00;0.00
72602;DHT22;60644;55.858;37.390;2022-07-29T00:12:23;0.00;0.00
72602;DHT22;60644;55.858;37.390;2022-07-29T00:14:49;0.00;0.00
72602;DHT22;60644;55.858;37.390;2022-07-29T00:17:15;0.00;0.00
72602;DHT22;60644;55.858;37.390;2022-07-29T00:19:41;0.00;0.00
72602;DHT22;60644;55.858;37.390;2022-07-29T00:22:07;0.00;0.00
72602;DHT22;60644;55.858;37.390;2022-07-29T00:24:33;0.00;0.00
72602;DHT22;60644;55.858;37.390;2022-07-29T00:26:59;0.00;0.00
72602;DHT22;60644;55.858;37.390;2022-07-29T00:29:25;0.00;0.00
72602;DHT22;60644;55.858;37.390;2022-07-29T00:31:51;0.00;0.00
72602;DHT22;60644;55.858;37.390;2022-07-29T00:34:17;0.00;0.00
72602;DHT22;60644;55.858;37.390;2022-07-29T00:37:02;0.00;0.00
72602;DHT22;60644;55.858;37.390;2022-07-29T00:39:28;0.00;0.00
72602;DHT22;60644;55.858;37.390;2022-07-29T00:41:54;0.00;0.00
72602;DHT22;60644;55.858;37.390;2022-07-29T00:44:20;0.00;0.00
72602;DHT22;60644;55.858;37.390;2022-07-29T00:46:46;0.00;0.00
72602;DHT22;60644;55.858;37.390;2022-07-29T00:49:12;0.00;0.00
72602;DHT22;60644;55.858;37.390;2022-07-29T00:51:39;0.00;0.00
72602;DHT22;60644;55.858;37.390;2022-07-29T00:54:05;0.00;0.00
72602;DHT22;60644;55.858;37.390;2022-07-29T00:56:32;0.00;0.00
72602;DHT22;60644;55.858;37.390;2022-07-29T00:58:59;0.00;0.00
72602;DHT22;60644;55.858;37.390;2022-07-29T01:01:26;0.00;0.00
72602;DHT22;60644;55.858;37.390;2022-07-29T01:03:52;0.00;0.00
72602;DHT22;60644;55.858;37.390;2022-07-29T01:06:19;0.00;0.00
72602;DHT22;60644;55.858;37.390;2022-07-29T01:08:47;0.00;0.00
72602;DHT22;60644;55.858;37.390;2022-07-29T01:11:16;0.00;0.00
72602;DHT22;60644;55.858;37.390;2022-07-29T01:13:43;0.00;0.00
72602;DHT22;60644;55.858;37.390;2022-07-29T01:16:21;0.00;0.00
72602;DHT22;60644;55.858;37.390;2022-07-29T01:18:53;0.00;0.00
72602;DHT22;60644;55.858;37.390;2022-07-29T01:21:59;0.00;0.00
72602;DHT22;60644;55.858;37.390;2022-07-29T01:30:09;0.00;0.00
72602;DHT22;60644;55.858;37.390;2022-07-29T01:32:37;0.00;68.14
72602;DHT22;60644;55.858;37.390;2022-07-29T01:37:43;17.16;68.62
72602;DHT22;60644;55.858;37.390;2022-07-29T01:41:15;17.11;68.86
72602;DHT22;60644;55.858;37.390;2022-07-29T01:43:18;17.14;68.61
72602;DHT22;60644;55.858;37.390;2022-07-29T01:45:48;17.20;68.32
72602;DHT22;60644;55.858;37.390;2022-07-29T01:48:21;17.28;68.07
72602;DHT22;60644;55.858;37.390;2022-07-29T01:50:52;17.30;67.93
72602;DHT22;60644;55.858;37.390;2022-07-29T01:53:41;17.35;67.82
72602;DHT22;60644;55.858;37.390;2022-07-29T01:56:09;17.36;67.68
72602;DHT22;60644;55.858;37.390;2022-07-29T01:58:38;17.37;67.59
72602;DHT22;60644;55.858;37.390;2022-07-29T02:01:06;17.37;67.49
72602;DHT22;60644;55.858;37.390;2022-07-29T02:03:35;17.41;67.39
72602;DHT22;60644;55.858;37.390;2022-07-29T02:06:03;17.44;67.34
72602;DHT22;60644;55.858;37.390;2022-07-29T02:08:32;17.45;67.30
72602;DHT22;60644;55.858;37.390;2022-07-29T02:10:59;17.45;67.53
72602;DHT22;60644;55.858;37.390;2022-07-29T02:13:27;17.41;67.30
72602;DHT22;60644;55.858;37.390;2022-07-29T02:15:55;17.41;67.15
72602;DHT22;60644;55.858;37.390;2022-07-29T02:18:23;17.44;67.09
72602;DHT22;60644;55.858;37.390;2022-07-29T02:20:54;17.37;67.61
72602;DHT22;60644;55.858;37.390;2022-07-29T02:23:22;17.36;67.22
72602;DHT22;60644;55.858;37.390;2022-07-29T02:25:54;17.37;67.35
72602;DHT22;60644;55.858;37.390;2022-07-29T02:28:25;17.38;67.31
72602;DHT22;60644;55.858;37.390;2022-07-29T02:30:53;17.38;67.28
72602;DHT22;60644;55.858;37.390;2022-07-29T02:33:21;17.39;67.23
72602;DHT22;60644;55.858;37.390;2022-07-29T02:35:50;17.39;67.06
72602;DHT22;60644;55.858;37.390;2022-07-29T02:38:16;17.41;67.17
72602;DHT22;60644;55.858;37.390;2022-07-29T02:41:08;17.45;67.21
72602;DHT22;60644;55.858;37.390;2022-07-29T02:43:35;17.39;67.79
72602;DHT22;60644;55.858;37.390;2022-07-29T02:46:04;17.38;67.37
72602;DHT22;60644;55.858;37.390;2022-07-29T02:48:38;17.41;67.30
72602;DHT22;60644;55.858;37.390;2022-07-29T02:51:32;17.39;67.46
72602;DHT22;60644;55.858;37.390;2022-07-29T02:54:02;17.33;67.84
72602;DHT22;60644;55.858;37.390;2022-07-29T02:56:32;17.29;67.61
72602;DHT22;60644;55.858;37.390;2022-07-29T02:59:04;17.26;67.50
72602;DHT22;60644;55.858;37.390;2022-07-29T03:01:33;17.29;67.42
72602;DHT22;60644;55.858;37.390;2022-07-29T03:04:03;17.29;67.41
72602;DHT22;60644;55.858;37.390;2022-07-29T03:06:31;17.28;67.39
72602;DHT22;60644;55.858;37.390;2022-07-29T03:08:59;17.33;67.17
72602;DHT22;60644;55.858;37.390;2022-07-29T03:11:26;17.30;67.58
72602;DHT22;60644;55.858;37.390;2022-07-29T03:13:52;17.31;67.28
72602;DHT22;60644;55.858;37.390;2022-07-29T03:16:19;17.29;67.15
72602;DHT22;60644;55.858;37.390;2022-07-29T03:18:46;17.26;67.47
72602;DHT22;60644;55.858;37.390;2022-07-29T03:21:12;17.29;67.21
72602;DHT22;60644;55.858;37.390;2022-07-29T03:23:43;17.28;67.91
72602;DHT22;60644;55.858;37.390;2022-07-29T03:26:11;17.30;67.48
72602;DHT22;60644;55.858;37.390;2022-07-29T03:28:37;17.34;67.56
72602;DHT22;60644;55.858;37.390;2022-07-29T03:31:03;17.32;67.22
72602;DHT22;60644;55.858;37.390;2022-07-29T03:33:29;17.31;67.72
72602;DHT22;60644;55.858;37.390;2022-07-29T03:35:56;17.30;67.62
72602;DHT22;60644;55.858;37.390;2022-07-29T03:38:25;17.35;67.33
72602;DHT22;60644;55.858;37.390;2022-07-29T03:41:01;17.36;67.48
72602;DHT22;60644;55.858;37.390;2022-07-29T03:43:35;17.36;67.23
72602;DHT22;60644;55.858;37.390;2022-07-29T03:46:04;17.35;67.36
72602;DHT22;60644;55.858;37.390;2022-07-29T03:48:32;17.35;66.72
72602;DHT22;60644;55.858;37.390;2022-07-29T03:51:01;17.37;66.98
72602;DHT22;60644;55.858;37.390;2022-07-29T03:53:27;17.41;67.04
72602;DHT22;60644;55.858;37.390;2022-07-29T03:55:58;17.46;67.40
72602;DHT22;60644;55.858;37.390;2022-07-29T03:58:26;17.43;67.14
72602;DHT22;60644;55.858;37.390;2022-07-29T04:00:54;17.44;66.75
72602;DHT22;60644;55.858;37.390;2022-07-29T04:03:21;17.47;66.73
72602;DHT22;60644;55.858;37.390;2022-07-29T04:06:01;17.46;67.49
72602;DHT22;60644;55.858;37.390;2022-07-29T04:08:27;17.51;67.01
72602;DHT22;60644;55.858;37.390;2022-07-29T04:10:53;17.51;66.98
72602;DHT22;60644;55.858;37.390;2022-07-29T04:13:20;17.55;66.88
72602;DHT22;60644;55.858;37.390;2022-07-29T04:15:46;17.59;67.22
72602;DHT22;60644;55.858;37.390;2022-07-29T04:18:12;17.65;66.81
72602;DHT22;60644;55.858;37.390;2022-07-29T04:20:38;17.64;67.25
72602;DHT22;60644;55.858;37.390;2022-07-29T04:23:04;17.72;66.88
72602;DHT22;60644;55.858;37.390;2022-07-29T04:25:30;17.77;66.67
72602;DHT22;60644;55.858;37.390;2022-07-29T04:27:55;17.85;66.47
72602;DHT22;60644;55.858;37.390;2022-07-29T04:30:28;17.91;66.40
72602;DHT22;60644;55.858;37.390;2022-07-29T04:32:55;17.91;66.16
72602;DHT22;60644;55.858;37.390;2022-07-29T04:35:21;17.93;66.19
72602;DHT22;60644;55.858;37.390;2022-07-29T04:37:47;17.96;65.96
72602;DHT22;60644;55.858;37.390;2022-07-29T04:40:13;17.99;66.49
72602;DHT22;60644;55.858;37.390;2022-07-29T04:42:39;18.02;65.98
72602;DHT22;60644;55.858;37.390;2022-07-29T04:45:06;18.07;65.89
72602;DHT22;60644;55.858;37.390;2022-07-29T04:47:32;18.11;65.85
72602;DHT22;60644;55.858;37.390;2022-07-29T04:49:57;18.18;65.66
72602;DHT22;60644;55.858;37.390;2022-07-29T04:52:24;18.26;65.05
72602;DHT22;60644;55.858;37.390;2022-07-29T04:54:50;18.27;65.42
72602;DHT22;60644;55.858;37.390;2022-07-29T04:57:16;18.32;65.13
72602;DHT22;60644;55.858;37.390;2022-07-29T04:59:42;18.40;65.24
72602;DHT22;60644;55.858;37.390;2022-07-29T05:02:09;18.44;65.13
72602;DHT22;60644;55.858;37.390;2022-07-29T05:04:35;18.53;64.90
72602;DHT22;60644;55.858;37.390;2022-07-29T05:07:01;18.59;64.69
72602;DHT22;60644;55.858;37.390;2022-07-29T05:09:27;18.59;63.97
72602;DHT22;60644;55.858;37.390;2022-07-29T05:11:53;18.58;63.94
72602;DHT22;60644;55.858;37.390;2022-07-29T05:14:19;18.58;64.25
72602;DHT22;60644;55.858;37.390;2022-07-29T05:16:45;18.65;64.27
72602;DHT22;60644;55.858;37.390;2022-07-29T05:19:11;18.74;64.09
72602;DHT22;60644;55.858;37.390;2022-07-29T05:21:37;18.78;63.62
72602;DHT22;60644;55.858;37.390;2022-07-29T05:24:04;18.78;63.55
72602;DHT22;60644;55.858;37.390;2022-07-29T05:26:30;18.86;63.49
72602;DHT22;60644;55.858;37.390;2022-07-29T05:28:56;18.94;63.46
72602;DHT22;60644;55.858;37.390;2022-07-29T05:31:22;19.02;63.37
72602;DHT22;60644;55.858;37.390;2022-07-29T05:33:48;19.05;63.10
72602;DHT22;60644;55.858;37.390;2022-07-29T05:36:14;19.03;62.46
72602;DHT22;60644;55.858;37.390;2022-07-29T05:38:40;19.06;62.64
72602;DHT22;60644;55.858;37.390;2022-07-29T05:41:06;18.98;61.75
72602;DHT22;60644;55.858;37.390;2022-07-29T05:43:32;18.98;61.78
72602;DHT22;60644;55.858;37.390;2022-07-29T05:45:58;19.01;61.96
72602;DHT22;60644;55.858;37.390;2022-07-29T05:48:24;19.07;61.96
72602;DHT22;60644;55.858;37.390;2022-07-29T05:50:50;19.09;61.50
72602;DHT22;60644;55.858;37.390;2022-07-29T05:53:16;19.10;61.45
72602;DHT22;60644;55.858;37.390;2022-07-29T05:55:42;19.18;61.86
72602;DHT22;60644;55.858;37.390;2022-07-29T05:58:08;19.21;60.20
72602;DHT22;60644;55.858;37.390;2022-07-29T06:00:34;19.29;60.45
72602;DHT22;60644;55.858;37.390;2022-07-29T06:03:00;19.37;60.54
72602;DHT22;60644;55.858;37.390;2022-07-29T06:05:27;19.43;59.41
72602;DHT22;60644;55.858;37.390;2022-07-29T06:07:52;19.52;60.18
72602;DHT22;60644;55.858;37.390;2022-07-29T06:10:18;19.63;60.27
72602;DHT22;60644;55.858;37.390;2022-07-29T06:12:44;19.77;60.65
72602;DHT22;60644;55.858;37.390;2022-07-29T06:15:10;19.89;59.73
72602;DHT22;60644;55.858;37.390;2022-07-29T06:17:37;19.94;59.20
72602;DHT22;60644;55.858;37.390;2022-07-29T06:20:03;19.98;58.07
72602;DHT22;60644;55.858;37.390;2022-07-29T06:22:29;19.99;58.81
72602;DHT22;60644;55.858;37.390;2022-07-29T06:24:55;20.07;58.99
72602;DHT22;60644;55.858;37.390;2022-07-29T06:27:21;20.16;57.88
72602;DHT22;60644;55.858;37.390;2022-07-29T06:29:47;20.11;56.48
72602;DHT22;60644;55.858;37.390;2022-07-29T06:32:13;20.12;57.06
72602;DHT22;60644;55.858;37.390;2022-07-29T06:34:39;20.17;58.19
72602;DHT22;60644;55.858;37.390;2022-07-29T06:37:08;20.24;56.57
72602;DHT22;60644;55.858;37.390;2022-07-29T06:39:35;20.27;57.66
72602;DHT22;60644;55.858;37.390;2022-07-29T06:42:03;20.39;57.32
72602;DHT22;60644;55.858;37.390;2022-07-29T06:44:31;20.53;56.80
72602;DHT22;60644;55.858;37.390;2022-07-29T06:47:00;20.62;54.97
72602;DHT22;60644;55.858;37.390;2022-07-29T06:49:26;20.72;56.64
72602;DHT22;60644;55.858;37.390;2022-07-29T06:51:54;20.71;55.18
72602;DHT22;60644;55.858;37.390;2022-07-29T06:54:20;20.65;55.29
72602;DHT22;60644;55.858;37.390;2022-07-29T06:56:47;20.64;55.29
72602;DHT22;60644;55.858;37.390;2022-07-29T06:59:13;20.71;54.39
72602;DHT22;60644;55.858;37.390;2022-07-29T07:01:42;20.76;54.51
72602;DHT22;60644;55.858;37.390;2022-07-29T07:04:09;20.90;55.91
72602;DHT22;60644;55.858;37.390;2022-07-29T07:06:35;20.94;53.47
72602;DHT22;60644;55.858;37.390;2022-07-29T07:09:01;20.91;52.94
72602;DHT22;60644;55.858;37.390;2022-07-29T07:11:28;21.02;53.62
72602;DHT22;60644;55.858;37.390;2022-07-29T07:13:54;21.19;52.41
72602;DHT22;60644;55.858;37.390;2022-07-29T07:16:20;21.33;53.10
72602;DHT22;60644;55.858;37.390;2022-07-29T07:18:46;21.45;52.95
72602;DHT22;60644;55.858;37.390;2022-07-29T07:21:12;21.46;50.08
72602;DHT22;60644;55.858;37.390;2022-07-29T07:23:38;21.49;52.06
72602;DHT22;60644;55.858;37.390;2022-07-29T07:26:04;21.51;49.86
72602;DHT22;60644;55.858;37.390;2022-07-29T07:28:31;22.25;48.78
72602;DHT22;60644;55.858;37.390;2022-07-29T07:30:57;25.97;46.85
72602;DHT22;60644;55.858;37.390;2022-07-29T07:33:23;0.00;39.47
72602;DHT22;60644;55.858;37.390;2022-07-29T07:35:50;32.09;35.85
72602;DHT22;60644;55.858;37.390;2022-07-29T07:38:16;33.63;33.49
72602;DHT22;60644;55.858;37.390;2022-07-29T07:40:42;34.93;35.02
72602;DHT22;60644;55.858;37.390;2022-07-29T07:43:07;35.86;33.49
72602;DHT22;60644;55.858;37.390;2022-07-29T07:45:33;36.38;32.12
72602;DHT22;60644;55.858;37.390;2022-07-29T07:47:59;36.88;29.20
72602;DHT22;60644;55.858;37.390;2022-07-29T07:50:26;37.77;28.89
72602;DHT22;60644;55.858;37.390;2022-07-29T07:52:53;35.96;25.78
72602;DHT22;60644;55.858;37.390;2022-07-29T07:55:23;32.25;29.15
72602;DHT22;60644;55.858;37.390;2022-07-29T07:57:49;29.66;32.94
72602;DHT22;60644;55.858;37.390;2022-07-29T08:00:16;28.28;34.23
72602;DHT22;60644;55.858;37.390;2022-07-29T08:02:42;27.26;32.66
72602;DHT22;60644;55.858;37.390;2022-07-29T08:05:11;26.36;36.69
72602;DHT22;60644;55.858;37.390;2022-07-29T08:07:38;25.57;35.98
72602;DHT22;60644;55.858;37.390;2022-07-29T08:10:04;25.09;40.49
72602;DHT22;60644;55.858;37.390;2022-07-29T08:12:30;24.72;41.36
72602;DHT22;60644;55.858;37.390;2022-07-29T08:14:56;24.25;40.20
72602;DHT22;60644;55.858;37.390;2022-07-29T08:17:22;23.88;41.82
72602;DHT22;60644;55.858;37.390;2022-07-29T08:19:48;23.70;40.47
72602;DHT22;60644;55.858;37.390;2022-07-29T08:22:15;23.61;42.00
72602;DHT22;60644;55.858;37.390;2022-07-29T08:24:41;23.65;43.35
72602;DHT22;60644;55.858;37.390;2022-07-29T08:27:12;23.67;41.38
72602;DHT22;60644;55.858;37.390;2022-07-29T08:29:39;23.56;42.63
72602;DHT22;60644;55.858;37.390;2022-07-29T08:32:06;23.52;42.51
72602;DHT22;60644;55.858;37.390;2022-07-29T08:34:32;23.40;42.45
72602;DHT22;60644;55.858;37.390;2022-07-29T08:36:58;23.34;41.45
72602;DHT22;60644;55.858;37.390;2022-07-29T08:39:25;23.18;41.39
72602;DHT22;60644;55.858;37.390;2022-07-29T08:41:51;23.11;43.32
72602;DHT22;60644;55.858;37.390;2022-07-29T08:44:18;23.07;42.81
72602;DHT22;60644;55.858;37.390;2022-07-29T08:46:45;23.10;43.58
72602;DHT22;60644;55.858;37.390;2022-07-29T08:49:11;23.01;43.20
72602;DHT22;60644;55.858;37.390;2022-07-29T08:51:40;23.05;44.08
72602;DHT22;60644;55.858;37.390;2022-07-29T08:54:08;23.12;43.97
72602;DHT22;60644;55.858;37.390;2022-07-29T08:56:34;23.12;41.68
72602;DHT22;60644;55.858;37.390;2022-07-29T08:59:04;23.17;41.30
72602;DHT22;60644;55.858;37.390;2022-07-29T09:01:32;23.05;42.12
72602;DHT22;60644;55.858;37.390;2022-07-29T09:03:59;23.16;41.33
72602;DHT22;60644;55.858;37.390;2022-07-29T09:06:31;23.25;41.80
72602;DHT22;60644;55.858;37.390;2022-07-29T09:08:59;23.25;42.86
72602;DHT22;60644;55.858;37.390;2022-07-29T09:11:26;23.36;43.47
72602;DHT22;60644;55.858;37.390;2022-07-29T09:13:53;23.28;42.42
72602;DHT22;60644;55.858;37.390;2022-07-29T09:16:19;23.29;40.92
72602;DHT22;60644;55.858;37.390;2022-07-29T09:18:46;23.13;40.91
72602;DHT22;60644;55.858;37.390;2022-07-29T09:21:14;23.07;42.84
72602;DHT22;60644;55.858;37.390;2022-07-29T09:24:03;23.07;43.49
72602;DHT22;60644;55.858;37.390;2022-07-29T09:26:36;22.98;43.03
72602;DHT22;60644;55.858;37.390;2022-07-29T09:29:18;22.93;43.32
72602;DHT22;60644;55.858;37.390;2022-07-29T09:31:46;22.88;42.76
72602;DHT22;60644;55.858;37.390;2022-07-29T09:34:30;22.99;43.76
72602;DHT22;60644;55.858;37.390;2022-07-29T09:36:57;23.12;43.74
72602;DHT22;60644;55.858;37.390;2022-07-29T09:39:31;23.22;43.50
72602;DHT22;60644;55.858;37.390;2022-07-29T09:41:59;23.29;42.48
72602;DHT22;60644;55.858;37.390;2022-07-29T09:44:26;23.28;43.98
72602;DHT22;60644;55.858;37.390;2022-07-29T09:47:03;23.23;41.16
72602;DHT22;60644;55.858;37.390;2022-07-29T09:49:33;23.20;41.73
72602;DHT22;60644;55.858;37.390;2022-07-29T09:52:02;23.16;40.68
72602;DHT22;60644;55.858;37.390;2022-07-29T09:54:29;23.16;41.11
72602;DHT22;60644;55.858;37.390;2022-07-29T09:57:00;23.21;39.91
72602;DHT22;60644;55.858;37.390;2022-07-29T09:59:26;23.32;38.56
72602;DHT22;60644;55.858;37.390;2022-07-29T10:01:52;23.53;38.82
72602;DHT22;60644;55.858;37.390;2022-07-29T10:04:19;23.65;39.45
72602;DHT22;60644;55.858;37.390;2022-07-29T10:07:00;23.65;40.41
72602;DHT22;60644;55.858;37.390;2022-07-29T10:09:26;23.80;41.49
72602;DHT22;60644;55.858;37.390;2022-07-29T10:12:03;23.87;39.72
72602;DHT22;60644;55.858;37.390;2022-07-29T10:14:31;23.82;40.54
72602;DHT22;60644;55.858;37.390;2022-07-29T10:17:03;23.79;41.45
72602;DHT22;60644;55.858;37.390;2022-07-29T10:19:31;23.76;41.55
72602;DHT22;60644;55.858;37.390;2022-07-29T10:21:57;23.83;42.00
72602;DHT22;60644;55.858;37.390;2022-07-29T10:24:28;23.75;41.56
72602;DHT22;60644;55.858;37.390;2022-07-29T10:27:00;23.75;40.70
72602;DHT22;60644;55.858;37.390;2022-07-29T10:29:27;23.75;38.97
72602;DHT22;60644;55.858;37.390;2022-07-29T10:37:27;23.55;39.07
72602;DHT22;60644;55.858;37.390;2022-07-29T10:40:15;23.62;39.25
72602;DHT22;60644;55.858;37.390;2022-07-29T10:43:14;23.83;41.07
72602;DHT22;60644;55.858;37.390;2022-07-29T10:45:45;23.98;39.96
72602;DHT22;60644;55.858;37.390;2022-07-29T10:48:12;24.03;39.76
72602;DHT22;60644;55.858;37.390;2022-07-29T10:50:59;23.89;37.96
72602;DHT22;60644;55.858;37.390;2022-07-29T10:53:51;23.87;38.49
72602;DHT22;60644;55.858;37.390;2022-07-29T10:56:31;23.81;38.91
72602;DHT22;60644;55.858;37.390;2022-07-29T11:01:48;23.47;40.70
72602;DHT22;60644;55.858;37.390;2022-07-29T11:04:18;23.47;41.05
72602;DHT22;60644;55.858;37.390;2022-07-29T11:09:30;23.26;41.80
72602;DHT22;60644;55.858;37.390;2022-07-29T11:11:57;23.18;41.84
72602;DHT22;60644;55.858;37.390;2022-07-29T11:17:17;23.13;42.45
72602;DHT22;60644;55.858;37.390;2022-07-29T11:19:44;23.11;42.76
72602;DHT22;60644;55.858;37.390;2022-07-29T11:22:11;23.20;43.35
72602;DHT22;60644;55.858;37.390;2022-07-29T11:24:37;23.22;43.43
72602;DHT22;60644;55.858;37.390;2022-07-29T11:27:17;23.43;43.19
72602;DHT22;60644;55.858;37.390;2022-07-29T11:29:58;24.51;40.67
72602;DHT22;60644;55.858;37.390;2022-07-29T11:32:38;25.45;40.74
72602;DHT22;60644;55.858;37.390;2022-07-29T11:35:21;26.23;39.49
72602;DHT22;60644;55.858;37.390;2022-07-29T11:38:25;27.11;35.15
72602;DHT22;60644;55.858;37.390;2022-07-29T11:44:06;27.59;34.89
72602;DHT22;60644;55.858;37.390;2022-07-29T11:46:49;27.40;32.31
72602;DHT22;60644;55.858;37.390;2022-07-29T11:49:24;27.20;33.55
72602;DHT22;60644;55.858;37.390;2022-07-29T11:51:55;27.11;32.53
72602;DHT22;60644;55.858;37.390;2022-07-29T11:54:30;27.17;35.18
72602;DHT22;60644;55.858;37.390;2022-07-29T11:56:58;27.22;34.53
72602;DHT22;60644;55.858;37.390;2022-07-29T11:59:24;27.28;33.90
72602;DHT22;60644;55.858;37.390;2022-07-29T12:01:55;27.27;33.82
72602;DHT22;60644;55.858;37.390;2022-07-29T12:04:21;27.39;35.57
72602;DHT22;60644;55.858;37.390;2022-07-29T12:06:53;27.61;31.25
72602;DHT22;60644;55.858;37.390;2022-07-29T12:09:20;27.68;31.70
72602;DHT22;60644;55.858;37.390;2022-07-29T12:11:47;27.53;33.15
72602;DHT22;60644;55.858;37.390;2022-07-29T12:14:32;27.50;32.24
72602;DHT22;60644;55.858;37.390;2022-07-29T12:17:00;27.49;32.35
72602;DHT22;60644;55.858;37.390;2022-07-29T12:19:26;27.23;32.23
72602;DHT22;60644;55.858;37.390;2022-07-29T12:21:54;26.86;34.78
72602;DHT22;60644;55.858;37.390;2022-07-29T12:24:21;26.46;33.79
72602;DHT22;60644;55.858;37.390;2022-07-29T12:26:54;26.15;35.73
72602;DHT22;60644;55.858;37.390;2022-07-29T12:29:20;26.04;36.97
72602;DHT22;60644;55.858;37.390;2022-07-29T12:31:48;26.19;35.82
72602;DHT22;60644;55.858;37.390;2022-07-29T12:34:22;26.45;35.62
72602;DHT22;60644;55.858;37.390;2022-07-29T12:36:49;26.64;36.44
72602;DHT22;60644;55.858;37.390;2022-07-29T12:39:18;26.94;34.14
72602;DHT22;60644;55.858;37.390;2022-07-29T12:41:45;26.87;35.21
72602;DHT22;60644;55.858;37.390;2022-07-29T12:44:11;26.49;33.56
72602;DHT22;60644;55.858;37.390;2022-07-29T12:46:37;26.51;33.97
72602;DHT22;60644;55.858;37.390;2022-07-29T12:49:04;26.58;34.02
72602;DHT22;60644;55.858;37.390;2022-07-29T12:51:34;26.25;33.47
72602;DHT22;60644;55.858;37.390;2022-07-29T12:54:11;26.07;34.14
72602;DHT22;60644;55.858;37.390;2022-07-29T12:56:43;26.35;34.06
72602;DHT22;60644;55.858;37.390;2022-07-29T13:01:39;26.85;32.28
72602;DHT22;60644;55.858;37.390;2022-07-29T13:04:05;27.00;32.73
72602;DHT22;60644;55.858;37.390;2022-07-29T13:11:40;27.23;31.99
72602;DHT22;60644;55.858;37.390;2022-07-29T13:14:09;27.22;32.37
72602;DHT22;60644;55.858;37.390;2022-07-29T13:16:36;27.39;31.01
72602;DHT22;60644;55.858;37.390;2022-07-29T13:19:08;27.63;31.32
72602;DHT22;60644;55.858;37.390;2022-07-29T13:21:35;27.54;27.91
72602;DHT22;60644;55.858;37.390;2022-07-29T13:24:01;27.08;30.00
72602;DHT22;60644;55.858;37.390;2022-07-29T13:26:28;26.98;32.17
72602;DHT22;60644;55.858;37.390;2022-07-29T13:28:54;26.80;31.82
72602;DHT22;60644;55.858;37.390;2022-07-29T13:31:20;26.97;32.89
72602;DHT22;60644;55.858;37.390;2022-07-29T13:33:47;27.24;32.17
72602;DHT22;60644;55.858;37.390;2022-07-29T13:36:13;27.42;30.30
72602;DHT22;60644;55.858;37.390;2022-07-29T13:38:39;27.54;32.58
72602;DHT22;60644;55.858;37.390;2022-07-29T13:41:05;27.67;30.13
72602;DHT22;60644;55.858;37.390;2022-07-29T13:43:31;27.70;32.93
72602;DHT22;60644;55.858;37.390;2022-07-29T13:45:57;27.57;30.64
72602;DHT22;60644;55.858;37.390;2022-07-29T13:48:23;27.38;33.61
72602;DHT22;60644;55.858;37.390;2022-07-29T13:50:49;27.43;32.78
72602;DHT22;60644;55.858;37.390;2022-07-29T13:53:15;27.54;32.95
72602;DHT22;60644;55.858;37.390;2022-07-29T13:55:42;27.58;30.77
72602;DHT22;60644;55.858;37.390;2022-07-29T13:58:07;27.47;29.87
72602;DHT22;60644;55.858;37.390;2022-07-29T14:00:34;27.39;32.12
72602;DHT22;60644;55.858;37.390;2022-07-29T14:03:00;27.14;33.43
72602;DHT22;60644;55.858;37.390;2022-07-29T14:05:26;27.05;33.85
72602;DHT22;60644;55.858;37.390;2022-07-29T14:07:52;26.95;32.94
72602;DHT22;60644;55.858;37.390;2022-07-29T14:10:18;26.95;32.42
72602;DHT22;60644;55.858;37.390;2022-07-29T14:12:44;27.04;33.46
72602;DHT22;60644;55.858;37.390;2022-07-29T14:15:10;27.02;32.32
72602;DHT22;60644;55.858;37.390;2022-07-29T14:17:36;27.00;31.41
72602;DHT22;60644;55.858;37.390;2022-07-29T14:20:03;26.89;33.29
72602;DHT22;60644;55.858;37.390;2022-07-29T14:22:29;26.81;31.70
72602;DHT22;60644;55.858;37.390;2022-07-29T14:24:55;26.47;33.18
72602;DHT22;60644;55.858;37.390;2022-07-29T14:27:21;26.45;34.63
72602;DHT22;60644;55.858;37.390;2022-07-29T14:29:47;26.61;33.04
72602;DHT22;60644;55.858;37.390;2022-07-29T14:32:13;26.34;32.54
72602;DHT22;60644;55.858;37.390;2022-07-29T14:34:41;26.08;32.98
72602;DHT22;60644;55.858;37.390;2022-07-29T14:37:07;26.09;33.59
72602;DHT22;60644;55.858;37.390;2022-07-29T14:39:34;26.24;35.02
72602;DHT22;60644;55.858;37.390;2022-07-29T14:42:01;26.41;33.59
72602;DHT22;60644;55.858;37.390;2022-07-29T14:44:27;26.46;33.73
72602;DHT22;60644;55.858;37.390;2022-07-29T14:47:00;26.48;33.77
72602;DHT22;60644;55.858;37.390;2022-07-29T14:49:26;26.39;33.90
72602;DHT22;60644;55.858;37.390;2022-07-29T14:51:52;26.42;34.31
72602;DHT22;60644;55.858;37.390;2022-07-29T14:54:18;26.22;33.81
72602;DHT22;60644;55.858;37.390;2022-07-29T14:56:44;26.07;35.58
72602;DHT22;60644;55.858;37.390;2022-07-29T14:59:10;25.99;35.24
72602;DHT22;60644;55.858;37.390;2022-07-29T15:01:36;25.84;35.33
72602;DHT22;60644;55.858;37.390;2022-07-29T15:04:02;25.71;35.43
72602;DHT22;60644;55.858;37.390;2022-07-29T15:06:28;25.61;0.00
72602;DHT22;60644;55.858;37.390;2022-07-29T15:08:54;0.00;0.00
72602;DHT22;60644;55.858;37.390;2022-07-29T15:11:20;0.00;0.00
72602;DHT22;60644;55.858;37.390;2022-07-29T15:13:46;0.00;0.00
72602;DHT22;60644;55.858;37.390;2022-07-29T15:16:12;0.00;0.00
72602;DHT22;60644;55.858;37.390;2022-07-29T15:18:38;0.00;0.00
72602;DHT22;60644;55.858;37.390;2022-07-29T15:21:05;0.00;0.00
72602;DHT22;60644;55.858;37.390;2022-07-29T15:23:32;0.00;0.00
72602;DHT22;60644;55.858;37.390;2022-07-29T15:26:02;0.00;0.00
72602;DHT22;60644;55.858;37.390;2022-07-29T15:28:28;0.00;0.00
72602;DHT22;60644;55.858;37.390;2022-07-29T15:30:54;0.00;0.00
72602;DHT22;60644;55.858;37.390;2022-07-29T15:33:20;0.00;0.00
72602;DHT22;60644;55.858;37.390;2022-07-29T15:35:46;0.00;0.00
72602;DHT22;60644;55.858;37.390;2022-07-29T15:38:12;0.00;0.00
72602;DHT22;60644;55.858;37.390;2022-07-29T15:40:38;0.00;0.00
72602;DHT22;60644;55.858;37.390;2022-07-29T15:43:06;0.00;0.00
72602;DHT22;60644;55.858;37.390;2022-07-29T15:45:38;0.00;0.00
72602;DHT22;60644;55.858;37.390;2022-07-29T15:48:08;0.00;0.00
72602;DHT22;60644;55.858;37.390;2022-07-29T15:50:35;0.00;0.00
72602;DHT22;60644;55.858;37.390;2022-07-29T15:53:00;0.00;0.00
72602;DHT22;60644;55.858;37.390;2022-07-29T15:55:27;0.00;0.00
72602;DHT22;60644;55.858;37.390;2022-07-29T15:57:52;0.00;0.00
72602;DHT22;60644;55.858;37.390;2022-07-29T16:00:18;0.00;0.00